Time;durP1;ratioP1;P1;durP2;ratioP2;P2;SDS_P1;SDS_P2;PMS_P1;PMS_P2;Temp;Humidity;BMP_temperature;BMP_pressure;BME280_temperature;BME280_humidity;BME280_pressure;Samples;Min_cycle;Max_cycle;Signal;HPM_P1;HPM_P2
2021/06/16 00:01:12;;;;;;;11.45;5.68;;;;;;;16.78;100.00;96371.03;5025725;28;20089;-56
2021/06/16 00:03:41;;;;;;;10.77;5.28;;;;;;;16.61;100.00;96370.38;5020020;28;20088;-53
2021/06/16 00:06:10;;;;;;;10.43;5.70;;;;;;;16.61;100.00;96359.72;5023739;28;20061;-53
2021/06/16 00:08:38;;;;;;;11.07;5.57;;;;;;;16.65;100.00;96366.31;5016766;28;20073;-53
2021/06/16 00:11:08;;;;;;;13.38;5.55;;;;;;;16.53;100.00;96362.47;5023077;28;20080;-50
2021/06/16 00:13:36;;;;;;;17.20;6.00;;;;;;;16.58;100.00;96368.06;5026186;28;20143;-56
2021/06/16 00:16:05;;;;;;;15.43;5.72;;;;;;;16.66;100.00;96370.66;5026451;28;20081;-54
2021/06/16 00:18:33;;;;;;;11.52;5.10;;;;;;;16.58;100.00;96363.56;5019516;28;20529;-57
2021/06/16 00:21:04;;;;;;;12.02;5.45;;;;;;;16.61;100.00;96365.03;5023008;28;20072;-51
2021/06/16 00:23:32;;;;;;;8.95;5.00;;;;;;;16.65;100.00;96366.31;5020401;28;20478;-56
2021/06/16 00:26:01;;;;;;;9.20;5.93;;;;;;;16.61;100.00;96375.69;5018772;28;20092;-53
2021/06/16 00:28:29;;;;;;;8.35;5.00;;;;;;;16.62;100.00;96374.69;5021670;28;20072;-55
2021/06/16 00:30:58;;;;;;;6.57;5.32;;;;;;;16.58;100.00;96370.72;5024037;28;20076;-55
2021/06/16 00:33:26;;;;;;;9.43;5.68;;;;;;;16.38;100.00;96371.31;5022326;28;20903;-51
2021/06/16 00:35:55;;;;;;;10.23;5.57;;;;;;;16.38;100.00;96370.47;5025461;28;20072;-53
2021/06/16 00:38:25;;;;;;;6.47;5.15;;;;;;;16.56;100.00;96375.44;5025663;28;20715;-56
2021/06/16 00:40:53;;;;;;;7.90;5.07;;;;;;;16.46;100.00;96372.22;5018587;28;20065;-55
2021/06/16 00:43:22;;;;;;;8.30;5.40;;;;;;;16.22;100.00;96378.63;5024303;28;20118;-50
2021/06/16 00:45:50;;;;;;;8.90;4.93;;;;;;;16.19;100.00;96378.97;5024233;28;20095;-55
2021/06/16 00:48:19;;;;;;;8.85;4.72;;;;;;;16.16;100.00;96374.84;5024601;28;20065;-50
2021/06/16 00:50:47;;;;;;;8.25;5.50;;;;;;;16.25;100.00;96384.41;5020756;28;20538;-51
2021/06/16 00:53:16;;;;;;;9.93;5.53;;;;;;;16.36;100.00;96381.28;5022257;28;20478;-53
2021/06/16 00:55:46;;;;;;;7.68;5.47;;;;;;;16.35;100.00;96389.47;5020859;28;20061;-50
2021/06/16 00:58:14;;;;;;;11.45;5.45;;;;;;;16.28;100.00;96384.03;5024329;28;20100;-53
2021/06/16 01:00:45;;;;;;;9.55;5.53;;;;;;;16.07;100.00;96376.78;5019921;28;20124;-54
2021/06/16 01:03:17;;;;;;;7.35;5.25;;;;;;;16.16;100.00;96382.81;5023859;28;20072;-52
2021/06/16 01:05:48;;;;;;;10.70;5.53;;;;;;;16.12;100.00;96379.69;5021171;28;20454;-52
2021/06/16 01:08:19;;;;;;;10.77;5.65;;;;;;;16.09;100.00;96384.56;5022271;28;20068;-53
2021/06/16 01:10:49;;;;;;;11.45;5.88;;;;;;;15.83;100.00;96382.31;5022179;28;20072;-53
2021/06/16 01:13:27;;;;;;;7.88;5.22;;;;;;;15.92;100.00;96385.72;5025086;28;20124;-51
2021/06/16 01:16:03;;;;;;;8.88;5.60;;;;;;;16.03;100.00;96379.97;5021592;28;20088;-55
2021/06/16 01:18:34;;;;;;;9.68;6.05;;;;;;;15.90;100.00;96384.06;5023136;28;20057;-54
2021/06/16 01:21:04;;;;;;;10.20;6.40;;;;;;;15.83;100.00;96380.47;5017205;28;20069;-54
2021/06/16 01:23:40;;;;;;;11.43;6.32;;;;;;;15.93;100.00;96382.88;5025073;28;20069;-54
2021/06/16 01:26:20;;;;;;;14.80;6.30;;;;;;;15.73;100.00;96376.41;5022199;28;20068;-54
2021/06/16 01:28:49;;;;;;;9.27;6.20;;;;;;;15.76;100.00;96376.03;5005231;28;20091;-53
2021/06/16 01:31:20;;;;;;;10.95;6.40;;;;;;;15.81;100.00;96371.84;5021179;28;20077;-51
2021/06/16 01:33:49;;;;;;;13.82;6.88;;;;;;;15.68;100.00;96366.31;5022286;28;20078;-49
2021/06/16 01:36:17;;;;;;;10.95;6.57;;;;;;;15.65;100.00;96372.75;5020834;28;20061;-56
2021/06/16 01:38:47;;;;;;;10.68;6.35;;;;;;;15.78;100.00;96366.88;5022364;28;20060;-53
2021/06/16 01:41:17;;;;;;;11.90;7.40;;;;;;;15.69;100.00;96360.00;5020469;28;20072;-56
2021/06/16 01:43:48;;;;;;;11.23;6.88;;;;;;;15.66;100.00;96370.97;5017498;28;20080;-55
2021/06/16 01:46:18;;;;;;;13.25;7.22;;;;;;;15.59;100.00;96362.03;5019595;28;20091;-54
2021/06/16 01:48:47;;;;;;;12.40;7.20;;;;;;;15.71;100.00;96367.78;5023127;28;20092;-53
2021/06/16 01:51:16;;;;;;;13.55;8.25;;;;;;;15.82;100.00;96360.19;5022080;28;20070;-54
2021/06/16 01:53:47;;;;;;;11.15;6.32;;;;;;;15.68;100.00;96365.47;5020529;28;20060;-51
2021/06/16 01:56:15;;;;;;;7.97;6.38;;;;;;;15.87;100.00;96365.81;5017608;28;20097;-55
2021/06/16 01:58:44;;;;;;;15.27;6.68;;;;;;;15.82;100.00;96373.47;5021765;28;20559;-50
2021/06/16 02:01:14;;;;;;;9.18;6.82;;;;;;;15.71;100.00;96376.56;5019485;28;20139;-55
2021/06/16 02:03:43;;;;;;;12.55;7.13;;;;;;;15.62;100.00;96378.47;5021418;28;20084;-54
2021/06/16 02:06:13;;;;;;;10.35;6.93;;;;;;;15.76;100.00;96370.72;5022107;28;20465;-55
2021/06/16 02:08:43;;;;;;;11.80;7.40;;;;;;;15.74;100.00;96376.22;5018616;28;20065;-53
2021/06/16 02:11:12;;;;;;;10.60;7.60;;;;;;;15.83;100.00;96375.16;5019458;28;20083;-55
2021/06/16 02:13:43;;;;;;;12.00;7.32;;;;;;;15.73;100.00;96373.75;5019306;28;20442;-56
2021/06/16 02:16:15;;;;;;;12.35;7.55;;;;;;;15.51;100.00;96375.38;5021418;28;20407;-52
2021/06/16 02:18:46;;;;;;;13.65;7.07;;;;;;;15.61;100.00;96374.13;5018087;28;20069;-55
2021/06/16 02:21:15;;;;;;;14.10;7.20;;;;;;;15.67;100.00;96375.28;5020552;28;20068;-52
2021/06/16 02:23:44;;;;;;;15.20;6.95;;;;;;;15.52;100.00;96372.56;5017442;28;20068;-57
2021/06/16 02:26:13;;;;;;;10.82;6.75;;;;;;;15.25;100.00;96371.25;5002051;28;20077;-54
2021/06/16 02:28:42;;;;;;;9.93;6.70;;;;;;;15.18;100.00;96370.28;5020224;28;20068;-57
2021/06/16 02:31:11;;;;;;;9.68;7.13;;;;;;;15.27;100.00;96369.22;5004727;28;20068;-57
2021/06/16 02:33:41;;;;;;;12.05;7.70;;;;;;;15.04;100.00;96371.88;5017904;28;20101;-56
2021/06/16 02:36:10;;;;;;;14.25;7.70;;;;;;;15.00;100.00;96369.72;5022987;28;20069;-54
2021/06/16 02:38:39;;;;;;;10.40;7.45;;;;;;;15.13;100.00;96369.97;5017594;28;20092;-55
2021/06/16 02:41:10;;;;;;;13.07;7.78;;;;;;;14.98;100.00;96367.25;5001174;28;20056;-52
2021/06/16 02:43:39;;;;;;;13.38;7.07;;;;;;;14.93;100.00;96366.94;5018426;28;20065;-53
2021/06/16 02:46:11;;;;;;;10.98;7.10;;;;;;;14.88;100.00;96363.97;5017799;28;20083;-55
2021/06/16 02:48:42;;;;;;;11.65;7.47;;;;;;;14.93;100.00;96366.94;5023765;28;20787;-56
2021/06/16 02:51:12;;;;;;;10.75;7.10;;;;;;;14.86;100.00;96371.28;5022465;28;20061;-56
2021/06/16 02:53:42;;;;;;;10.43;7.68;;;;;;;14.96;100.00;96369.22;5021249;28;20077;-52
2021/06/16 02:56:11;;;;;;;13.75;7.93;;;;;;;15.06;100.00;96371.69;5019313;28;20550;-57
2021/06/16 02:58:42;;;;;;;15.82;8.02;;;;;;;15.04;100.00;96371.88;5023130;28;20072;-54
2021/06/16 03:01:13;;;;;;;12.82;7.45;;;;;;;15.13;100.00;96367.31;5023809;28;20068;-54
2021/06/16 03:03:44;;;;;;;12.55;7.93;;;;;;;15.10;100.00;96375.63;5028023;28;20073;-53
2021/06/16 03:06:13;;;;;;;12.80;7.03;;;;;;;14.91;100.00;96371.59;5020171;28;20516;-54
2021/06/16 03:08:43;;;;;;;9.23;6.53;;;;;;;14.89;100.00;96371.75;5026268;28;20060;-56
2021/06/16 03:11:12;;;;;;;11.85;6.43;;;;;;;14.96;100.00;96367.41;5023019;28;20470;-54
2021/06/16 03:13:42;;;;;;;7.13;6.25;;;;;;;14.71;100.00;96373.84;5023996;28;20072;-52
2021/06/16 03:16:10;;;;;;;10.38;6.50;;;;;;;14.57;100.00;96371.91;5023443;28;20513;-54
2021/06/16 03:18:39;;;;;;;8.13;6.10;;;;;;;14.95;100.00;96365.75;5026909;28;20066;-56
2021/06/16 03:21:09;;;;;;;9.80;6.38;;;;;;;15.02;100.00;96373.03;5021062;28;20069;-53
2021/06/16 03:23:37;;;;;;;10.35;6.95;;;;;;;15.11;100.00;96380.78;5022216;28;20061;-56
2021/06/16 03:26:06;;;;;;;9.65;6.30;;;;;;;15.11;100.00;96379.97;5022644;28;20069;-52
2021/06/16 03:28:35;;;;;;;12.57;6.32;;;;;;;15.22;100.00;96382.22;5024281;28;20605;-53
2021/06/16 03:31:04;;;;;;;7.22;6.38;;;;;;;15.16;100.00;96377.59;5027939;28;20061;-57
2021/06/16 03:33:33;;;;;;;11.45;6.72;;;;;;;15.29;100.00;96380.50;5023744;28;20354;-56
2021/06/16 03:36:02;;;;;;;8.68;5.82;;;;;;;15.36;100.00;96380.63;5017851;28;20080;-53
2021/06/16 03:38:33;;;;;;;13.75;6.85;;;;;;;15.42;100.00;96378.09;5010158;28;20065;-53
2021/06/16 03:41:01;;;;;;;;;;;;;;;15.61;100.00;96378.63;5025151;28;20069;-55
2021/06/16 03:43:29;;;;;;;8.95;6.35;;;;;;;15.32;100.00;96382.00;5023832;28;19957;-52
2021/06/16 03:45:58;;;;;;;9.00;7.13;;;;;;;15.26;100.00;96388.81;5023485;28;20073;-52
2021/06/16 03:48:27;;;;;;;15.85;8.57;;;;;;;15.65;100.00;96382.56;5025775;28;20064;-51
2021/06/16 03:50:56;;;;;;;13.10;8.27;;;;;;;15.93;100.00;96384.69;5024137;28;20076;-50
2021/06/16 03:53:25;;;;;;;14.57;7.72;;;;;;;16.04;100.00;96386.94;5022689;28;20076;-55
2021/06/16 03:55:56;;;;;;;13.63;8.05;;;;;;;16.85;100.00;96385.25;5022881;28;20072;-55
2021/06/16 03:58:25;;;;;;;12.48;7.22;;;;;;;18.60;100.00;96374.97;5015299;28;20080;-55
2021/06/16 04:00:54;;;;;;;11.18;6.80;;;;;;;19.99;100.00;96377.28;5026848;28;20081;-56
2021/06/16 04:03:23;;;;;;;11.10;5.70;;;;;;;20.99;100.00;96369.94;5021476;28;20088;-54
2021/06/16 04:05:51;;;;;;;8.27;5.15;;;;;;;22.09;89.94;96368.88;5023808;28;20069;-52
2021/06/16 04:08:21;;;;;;;8.35;5.20;;;;;;;22.45;83.68;96374.38;5020235;28;20071;-55
2021/06/16 04:10:50;;;;;;;9.07;5.33;;;;;;;21.68;90.06;96371.06;5021286;28;20611;-57
2021/06/16 04:13:20;;;;;;;6.15;5.20;;;;;;;22.02;86.99;96374.31;5005070;28;20507;-54
2021/06/16 04:15:48;;;;;;;7.15;5.30;;;;;;;22.51;83.96;96376.19;5027287;28;20083;-53
2021/06/16 04:18:17;;;;;;;6.22;4.78;;;;;;;23.31;75.50;96371.78;5023881;28;20076;-55
2021/06/16 04:20:46;;;;;;;7.35;5.43;;;;;;;24.76;65.42;96374.09;5024357;28;20080;-59
2021/06/16 04:23:15;;;;;;;6.25;4.75;;;;;;;25.30;60.45;96368.50;5021497;28;20101;-55
2021/06/16 04:25:43;;;;;;;10.07;5.07;;;;;;;26.33;53.88;96365.72;5019192;28;20072;-53
2021/06/16 04:28:12;;;;;;;8.38;5.18;;;;;;;26.95;50.95;96370.97;5022894;28;20069;-53
2021/06/16 04:30:42;;;;;;;9.48;5.47;;;;;;;26.99;50.20;96377.53;5027224;28;20500;-59
2021/06/16 04:33:11;;;;;;;6.05;5.32;;;;;;;27.04;51.09;96374.88;5021731;28;20074;-57
2021/06/16 04:35:40;;;;;;;11.73;5.50;;;;;;;27.47;49.11;96377.88;5020295;28;20061;-55
2021/06/16 04:38:09;;;;;;;9.30;5.57;;;;;;;27.41;49.62;96375.09;5023864;28;20065;-56
2021/06/16 04:40:37;;;;;;;8.25;5.40;;;;;;;28.23;47.76;96380.53;5023482;28;20080;-57
2021/06/16 04:43:06;;;;;;;7.20;5.45;;;;;;;29.02;45.03;96377.03;5006069;28;20073;-55
2021/06/16 04:45:34;;;;;;;8.27;5.05;;;;;;;27.66;49.83;96366.41;5023847;28;20057;-54
2021/06/16 04:48:05;;;;;;;10.38;7.00;;;;;;;29.21;44.16;96366.50;5023303;28;20069;-54
2021/06/16 04:50:34;;;;;;;9.10;5.85;;;;;;;27.08;51.64;96377.88;5019845;28;20069;-56
2021/06/16 04:53:02;;;;;;;10.70;6.03;;;;;;;27.55;51.49;96372.78;5021201;28;20394;-56
2021/06/16 04:55:31;;;;;;;10.80;5.22;;;;;;;26.71;57.90;96373.09;5020680;28;20056;-57
2021/06/16 04:57:59;;;;;;;7.10;5.43;;;;;;;26.81;58.86;96370.53;5022031;28;20084;-56
2021/06/16 05:00:28;;;;;;;7.72;5.38;;;;;;;26.36;60.25;96368.75;5021885;28;20065;-52
2021/06/16 05:02:57;;;;;;;10.38;5.88;;;;;;;26.94;57.15;96366.63;5022256;28;20073;-54
2021/06/16 05:05:27;;;;;;;8.02;5.75;;;;;;;25.89;59.59;96365.56;5016250;28;20071;-59
2021/06/16 05:07:56;;;;;;;6.53;5.28;;;;;;;26.81;54.95;96357.00;5024362;28;20080;-56
2021/06/16 05:10:24;;;;;;;9.70;5.65;;;;;;;26.92;53.31;96361.47;5018107;28;20073;-55
2021/06/16 05:12:53;;;;;;;8.45;5.70;;;;;;;27.44;50.66;96361.03;5026784;28;20082;-55
2021/06/16 05:15:21;;;;;;;7.07;5.80;;;;;;;28.30;48.20;96359.41;5022091;28;20109;-54
2021/06/16 05:18:08;;;;;;;10.45;5.88;;;;;;;28.27;46.84;96359.94;5022004;28;20528;-53
2021/06/16 05:20:40;;;;;;;6.30;5.70;;;;;;;29.08;46.42;96351.53;5018179;28;20064;-58
2021/06/16 05:23:09;;;;;;;10.85;6.60;;;;;;;29.51;44.05;96353.03;5022581;28;20459;-54
2021/06/16 05:25:37;;;;;;;8.15;5.63;;;;;;;28.50;45.23;96359.59;5019472;28;20049;-58
2021/06/16 05:28:05;;;;;;;10.95;5.80;;;;;;;28.98;45.15;96360.41;5027862;28;20073;-56
2021/06/16 05:30:34;;;;;;;7.93;6.05;;;;;;;27.71;48.86;96367.56;5018712;28;20061;-55
2021/06/16 05:33:02;;;;;;;10.85;6.32;;;;;;;26.47;57.31;96367.88;5024744;28;20073;-56
2021/06/16 05:35:31;;;;;;;8.40;6.20;;;;;;;25.78;60.99;96364.53;5022110;28;20461;-58
2021/06/16 05:38:01;;;;;;;9.95;6.55;;;;;;;26.36;59.14;96365.22;5021341;28;20069;-57
2021/06/16 05:40:30;;;;;;;9.00;6.25;;;;;;;26.83;54.86;96362.97;5016526;28;20057;-57
2021/06/16 05:42:58;;;;;;;8.23;5.80;;;;;;;27.16;53.87;96364.78;5026180;28;20448;-57
2021/06/16 05:45:27;;;;;;;9.50;6.63;;;;;;;26.26;57.59;96355.91;5023988;28;20060;-56
2021/06/16 05:47:55;;;;;;;9.30;6.80;;;;;;;26.71;54.46;96365.78;5023204;28;20068;-54
2021/06/16 05:50:24;;;;;;;16.02;7.22;;;;;;;24.96;64.23;96359.41;5020306;28;20062;-54
2021/06/16 05:52:52;;;;;;;8.90;6.32;;;;;;;25.29;63.45;96356.88;5021069;28;20057;-60
2021/06/16 05:55:22;;;;;;;8.23;6.30;;;;;;;25.44;63.31;96366.31;5017536;28;20061;-60
2021/06/16 05:57:50;;;;;;;8.73;6.43;;;;;;;25.74;60.42;96375.00;5006420;28;20076;-57
2021/06/16 06:00:20;;;;;;;7.03;6.07;;;;;;;26.15;60.10;96358.66;5021351;28;20076;-60
2021/06/16 06:02:49;;;;;;;9.82;6.75;;;;;;;25.73;61.89;96367.13;5020752;28;20061;-59
2021/06/16 06:05:18;;;;;;;9.75;6.22;;;;;;;26.22;56.51;96367.44;5021826;28;20080;-58
2021/06/16 06:07:46;;;;;;;7.13;5.47;;;;;;;25.25;63.19;96371.06;5019865;28;20076;-59
2021/06/16 06:10:15;;;;;;;7.43;5.70;;;;;;;25.15;63.51;96366.28;5023594;28;20434;-58
2021/06/16 06:12:45;;;;;;;6.32;5.57;;;;;;;26.24;55.38;96362.59;5008196;28;20088;-60
2021/06/16 06:15:15;;;;;;;7.03;5.90;;;;;;;25.75;57.53;96362.31;5003117;28;20057;-61
2021/06/16 06:17:43;;;;;;;7.35;5.97;;;;;;;25.58;58.52;96352.28;5018342;28;20057;-59
2021/06/16 06:20:13;;;;;;;6.97;5.60;;;;;;;24.72;63.32;96367.53;5021547;28;20065;-60
2021/06/16 06:22:42;;;;;;;6.72;5.75;;;;;;;24.28;69.09;96361.66;5017627;28;20053;-61
2021/06/16 06:25:11;;;;;;;8.40;5.45;;;;;;;25.26;63.58;96351.16;5019527;28;20581;-60
2021/06/16 06:27:40;;;;;;;8.00;5.53;;;;;;;25.48;63.21;96353.97;5024386;28;20080;-57
2021/06/16 06:30:11;;;;;;;9.65;5.70;;;;;;;25.47;63.09;96349.66;5022473;28;20064;-60
2021/06/16 06:32:40;;;;;;;7.35;5.68;;;;;;;24.39;73.42;96363.50;5018923;28;20069;-59
2021/06/16 06:35:09;;;;;;;12.07;6.05;;;;;;;24.81;69.95;96344.53;5015051;28;20064;-60
2021/06/16 06:37:38;;;;;;;8.27;6.00;;;;;;;24.87;74.37;96348.97;5017733;28;20064;-61
2021/06/16 06:40:08;;;;;;;6.78;6.05;;;;;;;24.37;72.60;96362.94;5020142;28;20076;-60
2021/06/16 06:42:36;;;;;;;7.63;6.13;;;;;;;24.49;73.25;96362.97;5026384;28;20325;-60
2021/06/16 06:45:06;;;;;;;8.75;5.88;;;;;;;24.48;70.17;96355.13;5019513;28;20294;-57
2021/06/16 06:47:37;;;;;;;7.80;5.97;;;;;;;25.14;64.36;96355.75;5021762;28;20069;-59
2021/06/16 06:50:11;;;;;;;7.43;6.47;;;;;;;24.97;64.00;96353.75;5020280;28;20068;-61
2021/06/16 06:52:42;;;;;;;9.07;6.30;;;;;;;24.70;68.31;96358.03;5019979;28;20064;-60
2021/06/16 06:55:11;;;;;;;8.90;6.78;;;;;;;24.73;72.38;96357.56;5021605;28;20104;-59
2021/06/16 06:57:41;;;;;;;10.38;6.70;;;;;;;25.17;63.96;96350.69;5025051;28;20057;-60
2021/06/16 07:00:12;;;;;;;10.80;6.03;;;;;;;24.63;67.57;96355.47;5017551;28;20080;-57
2021/06/16 07:02:44;;;;;;;13.18;6.05;;;;;;;24.85;64.92;96351.09;5022445;28;20061;-60
2021/06/16 07:05:12;;;;;;;9.15;5.57;;;;;;;24.95;63.15;96350.50;5012735;28;20076;-60
2021/06/16 07:07:41;;;;;;;9.20;5.38;;;;;;;24.40;64.11;96356.31;5018960;28;20053;-61
2021/06/16 07:10:11;;;;;;;7.47;5.05;;;;;;;25.43;58.46;96340.38;5021402;28;20068;-61
2021/06/16 07:12:40;;;;;;;8.95;5.10;;;;;;;26.00;60.29;96345.75;5020577;28;20069;-60
2021/06/16 07:15:10;;;;;;;6.15;5.10;;;;;;;25.75;58.43;96344.22;5016827;28;20076;-61
2021/06/16 07:17:39;;;;;;;8.90;4.95;;;;;;;26.41;54.19;96340.97;5022043;28;20078;-58
2021/06/16 07:20:11;;;;;;;8.18;5.53;;;;;;;25.82;58.64;96345.97;5017871;28;20526;-61
2021/06/16 07:22:40;;;;;;;7.07;4.95;;;;;;;25.83;57.68;96340.31;5019207;28;20068;-59
2021/06/16 07:25:09;;;;;;;8.00;4.47;;;;;;;26.30;52.37;96333.78;5020567;28;20306;-61
2021/06/16 07:27:38;;;;;;;7.97;4.72;;;;;;;26.39;49.51;96329.56;5025302;28;20069;-60
2021/06/16 07:30:08;;;;;;;8.15;4.60;;;;;;;26.03;52.31;96335.25;5018897;28;20065;-61
2021/06/16 07:32:37;;;;;;;7.95;4.35;;;;;;;26.62;49.09;96332.09;5020093;28;20058;-61
2021/06/16 07:35:07;;;;;;;7.88;4.68;;;;;;;27.26;46.86;96328.88;5016295;28;22363;-61
2021/06/16 07:37:38;;;;;;;8.18;4.88;;;;;;;26.65;50.63;96331.59;5020606;28;20038;-62
2021/06/16 07:40:09;;;;;;;5.65;3.90;;;;;;;26.87;45.75;96334.31;5022286;28;20088;-59
2021/06/16 07:42:39;;;;;;;5.43;4.00;;;;;;;26.29;47.24;96330.25;5019789;28;20061;-62
2021/06/16 07:45:09;;;;;;;7.78;4.53;;;;;;;27.02;47.20;96331.00;5004102;28;20626;-62
2021/06/16 07:47:37;;;;;;;8.23;4.72;;;;;;;26.25;46.70;96334.50;5026064;28;20061;-61
2021/06/16 07:50:07;;;;;;;6.07;4.05;;;;;;;27.02;46.17;96330.19;5021215;28;20527;-60
2021/06/16 07:52:38;;;;;;;6.85;4.28;;;;;;;26.93;47.03;96329.81;5021487;28;20060;-61
2021/06/16 07:55:08;;;;;;;8.98;5.70;;;;;;;27.26;47.17;96333.50;5022162;28;20068;-61
2021/06/16 07:57:36;;;;;;;7.18;4.93;;;;;;;28.29;45.69;96333.38;5023877;28;20267;-60
2021/06/16 08:00:07;;;;;;;8.30;5.07;;;;;;;28.74;43.89;96329.34;5026630;28;20497;-61
2021/06/16 08:02:37;;;;;;;12.68;4.60;;;;;;;28.51;44.32;96325.97;5022582;28;20190;-61
2021/06/16 08:05:07;;;;;;;6.20;4.80;;;;;;;28.08;45.30;96326.97;5017771;28;20069;-61
2021/06/16 08:07:35;;;;;;;7.60;4.00;;;;;;;28.76;44.12;96329.88;5020108;28;20057;-62
2021/06/16 08:10:06;;;;;;;4.32;3.72;;;;;;;28.63;42.54;96332.00;5026826;28;20068;-61
2021/06/16 08:12:35;;;;;;;5.28;3.25;;;;;;;27.48;41.26;96328.84;5019243;28;20525;-61
2021/06/16 08:15:06;;;;;;;6.63;3.13;;;;;;;28.25;41.21;96333.09;5026107;28;20068;-61
2021/06/16 08:17:35;;;;;;;6.32;3.70;;;;;;;27.50;41.72;96331.31;5023388;28;20069;-57
2021/06/16 08:20:05;;;;;;;4.85;3.55;;;;;;;27.07;43.06;96333.75;5025671;28;20575;-60
2021/06/16 08:22:34;;;;;;;6.38;4.00;;;;;;;27.02;44.01;96327.50;5015895;28;20061;-59
2021/06/16 08:25:06;;;;;;;5.65;3.90;;;;;;;27.54;42.93;96321.59;5028603;28;20081;-61
2021/06/16 08:27:35;;;;;;;4.60;3.50;;;;;;;27.64;44.80;96324.41;5020831;28;20065;-60
2021/06/16 08:30:04;;;;;;;7.10;4.00;;;;;;;27.65;43.31;96323.31;5022018;28;20065;-60
2021/06/16 08:32:33;;;;;;;6.18;3.10;;;;;;;28.28;44.93;96320.88;5023879;28;20072;-59
2021/06/16 08:35:02;;;;;;;7.22;3.63;;;;;;;28.96;44.31;96321.03;5024678;28;20065;-57
2021/06/16 08:37:30;;;;;;;5.85;3.60;;;;;;;28.72;42.89;96321.47;5019253;28;20068;-62
2021/06/16 08:39:59;;;;;;;8.38;3.90;;;;;;;28.95;43.02;96317.50;5028286;28;20080;-62
2021/06/16 08:42:29;;;;;;;8.32;3.67;;;;;;;28.44;43.34;96324.56;5016059;28;20678;-59
2021/06/16 08:44:57;;;;;;;;;;;;;;;28.58;43.08;96320.31;5022105;28;20080;-57
2021/06/16 08:47:27;;;;;;;4.25;3.40;;;;;;;28.38;42.40;96321.78;5022418;28;19974;-59
2021/06/16 08:49:55;;;;;;;8.90;3.75;;;;;;;28.69;42.32;96319.28;5020698;28;20069;-57
2021/06/16 08:52:24;;;;;;;7.45;3.17;;;;;;;29.25;40.82;96314.13;5020906;28;20094;-61
2021/06/16 08:54:52;;;;;;;6.15;3.50;;;;;;;28.86;41.63;96314.47;5025075;28;20080;-58
2021/06/16 08:57:21;;;;;;;9.18;3.28;;;;;;;28.26;42.27;96318.44;5022367;28;20224;-58
2021/06/16 08:59:50;;;;;;;8.45;3.83;;;;;;;29.20;41.02;96313.28;5023268;28;20525;-60
2021/06/16 09:02:19;;;;;;;4.88;3.00;;;;;;;29.63;41.31;96319.38;5024902;28;20049;-58
2021/06/16 09:04:48;;;;;;;5.25;3.20;;;;;;;29.31;41.26;96307.59;5019643;28;20069;-60
2021/06/16 09:07:42;;;;;;;7.50;3.53;;;;;;;29.54;39.48;96310.91;5020018;28;20077;-58
2021/06/16 09:10:13;;;;;;;4.47;2.85;;;;;;;29.34;39.16;96308.97;5018186;28;20620;-59
2021/06/16 09:12:45;;;;;;;4.78;2.90;;;;;;;29.68;38.72;96298.47;5026212;28;20466;-59
2021/06/16 09:15:17;;;;;;;4.10;2.70;;;;;;;30.04;40.21;96298.47;5016800;28;20077;-60
2021/06/16 09:18:00;;;;;;;4.28;2.83;;;;;;;29.84;38.50;96315.63;5022996;28;20065;-58
2021/06/16 09:20:31;;;;;;;5.97;3.22;;;;;;;29.84;36.69;96309.38;5017977;28;20069;-57
2021/06/16 09:23:11;;;;;;;4.68;3.33;;;;;;;28.91;38.53;96302.03;5023461;28;20107;-61
2021/06/16 09:25:40;;;;;;;6.00;3.20;;;;;;;29.44;37.47;96300.03;5018510;28;20556;-58
2021/06/16 09:28:09;;;;;;;4.13;3.05;;;;;;;29.88;38.68;96303.09;5017467;28;20088;-59
2021/06/16 09:30:43;;;;;;;7.30;3.38;;;;;;;30.32;36.91;96309.91;5023934;28;20077;-61
2021/06/16 09:33:16;;;;;;;4.30;3.20;;;;;;;29.99;37.69;96306.66;5018945;28;20065;-60
2021/06/16 09:35:46;;;;;;;5.45;3.60;;;;;;;30.24;36.94;96297.69;5017120;28;20072;-60
2021/06/16 09:38:23;;;;;;;4.82;3.53;;;;;;;29.70;37.87;96300.94;5019700;28;20080;-59
2021/06/16 09:40:52;;;;;;;6.68;4.00;;;;;;;29.53;39.27;96296.53;5022993;28;20477;-60
2021/06/16 09:43:22;;;;;;;7.17;4.00;;;;;;;29.47;38.23;96297.59;5022263;28;20100;-59
2021/06/16 09:45:58;;;;;;;4.60;3.30;;;;;;;29.25;38.88;96302.41;5018812;28;20108;-61
2021/06/16 09:48:32;;;;;;;6.15;3.42;;;;;;;29.62;38.40;96296.81;5022551;28;20057;-60
2021/06/16 09:51:18;;;;;;;3.90;3.10;;;;;;;29.60;38.50;96296.28;5017891;28;20076;-60
2021/06/16 09:54:02;;;;;;;4.63;3.28;;;;;;;29.71;38.18;96297.94;5021390;28;20092;-61
2021/06/16 09:56:32;;;;;;;5.97;3.33;;;;;;;29.87;37.55;96293.34;5015942;28;20057;-59
2021/06/16 09:59:01;;;;;;;5.03;3.70;;;;;;;29.51;37.77;96295.97;5018930;28;20072;-58
2021/06/16 10:01:53;;;;;;;6.63;3.65;;;;;;;29.73;37.65;96298.50;5018457;28;20068;-56
2021/06/16 10:04:33;;;;;;;6.40;3.33;;;;;;;29.97;36.78;96287.91;5021041;28;20077;-58
2021/06/16 10:07:13;;;;;;;4.97;4.05;;;;;;;30.29;37.24;96292.25;5021108;28;20081;-59
2021/06/16 10:09:48;;;;;;;4.10;3.22;;;;;;;30.57;37.25;96290.81;5015690;28;20057;-59
2021/06/16 10:12:18;;;;;;;4.00;3.33;;;;;;;30.51;36.51;96291.91;5018524;28;20509;-60
2021/06/16 10:14:46;;;;;;;5.15;3.25;;;;;;;30.19;36.96;96286.81;5020264;28;20462;-58
2021/06/16 10:17:16;;;;;;;4.63;3.40;;;;;;;30.42;36.58;96285.41;5018057;28;20084;-56
2021/06/16 10:19:46;;;;;;;4.70;3.15;;;;;;;29.92;36.23;96276.19;5024065;28;20069;-60
2021/06/16 10:22:15;;;;;;;5.60;3.20;;;;;;;30.23;35.86;96274.28;5018627;28;20522;-60
2021/06/16 10:24:44;;;;;;;4.40;3.08;;;;;;;30.54;35.14;96277.75;5017937;28;20088;-59
2021/06/16 10:27:17;;;;;;;5.05;3.00;;;;;;;30.29;33.83;96281.34;5019078;28;20068;-59
2021/06/16 10:29:48;;;;;;;4.88;2.75;;;;;;;30.79;32.17;96279.59;5020401;28;20069;-61
2021/06/16 10:32:18;;;;;;;3.83;2.67;;;;;;;30.77;31.57;96281.81;5019767;28;20462;-63
2021/06/16 10:34:59;;;;;;;5.05;2.60;;;;;;;31.12;30.58;96277.28;5020402;28;20088;-60
2021/06/16 10:37:30;;;;;;;3.42;2.83;;;;;;;30.34;32.08;96281.34;5018644;28;20073;-61
2021/06/16 10:40:32;;;;;;;3.88;2.83;;;;;;;30.55;31.26;96273.94;5020614;28;20552;-61
2021/06/16 10:43:33;;;;;;;5.68;2.97;;;;;;;29.74;32.04;96272.13;5019801;28;21535;-62
2021/06/16 10:46:16;;;;;;;3.95;3.15;;;;;;;30.51;33.37;96267.41;5017734;28;21264;-61
2021/06/16 10:48:54;;;;;;;4.55;2.88;;;;;;;30.40;34.24;96271.25;5012137;28;22079;-61
2021/06/16 10:51:33;;;;;;;7.88;2.75;;;;;;;29.84;32.12;96260.44;5017685;28;20062;-60
2021/06/16 10:54:13;;;;;;;3.75;2.58;;;;;;;30.35;31.89;96273.97;5018087;28;20076;-61
2021/06/16 10:56:43;;;;;;;6.25;2.70;;;;;;;29.96;31.85;96269.94;5019256;28;20096;-61
2021/06/16 10:59:11;;;;;;;;;;;;;;;29.92;32.25;96278.91;5018535;28;20058;-61
2021/06/16 11:01:50;;;;;;;5.82;2.63;;;;;;;30.05;32.90;96262.03;5019921;28;19956;-59
2021/06/16 11:04:30;;;;;;;4.38;2.47;;;;;;;30.34;32.25;96270.44;5016970;28;20081;-60
2021/06/16 11:06:58;;;;;;;3.42;2.67;;;;;;;30.62;32.13;96257.31;5023892;28;20088;-61
2021/06/16 11:09:51;;;;;;;5.65;2.45;;;;;;;30.35;33.05;96260.38;5018803;28;20555;-61
2021/06/16 11:12:31;;;;;;;4.57;2.60;;;;;;;30.60;32.17;96257.59;5013659;28;20084;-61
2021/06/16 11:14:59;;;;;;;4.45;2.55;;;;;;;30.45;32.60;96254.91;5020081;28;20540;-60
2021/06/16 11:17:46;;;;;;;4.28;2.83;;;;;;;30.10;32.51;96250.34;5022911;28;20072;-60
2021/06/16 11:20:22;;;;;;;3.30;2.60;;;;;;;30.76;33.90;96249.41;5021668;28;20070;-61
2021/06/16 11:22:56;;;;;;;5.90;2.70;;;;;;;30.82;33.97;96242.84;5021955;28;20084;-61
2021/06/16 11:25:38;;;;;;;6.68;3.03;;;;;;;30.45;33.40;96249.47;5020239;28;20108;-59
2021/06/16 11:28:15;;;;;;;5.38;3.00;;;;;;;30.52;33.11;96252.72;5027905;28;20085;-61
2021/06/16 11:31:02;;;;;;;4.25;2.92;;;;;;;31.04;33.34;96239.72;5023097;28;20057;-61
2021/06/16 11:33:41;;;;;;;10.07;2.75;;;;;;;30.93;32.97;96247.94;5020099;28;20069;-59
2021/06/16 11:36:13;;;;;;;4.68;2.97;;;;;;;30.97;32.59;96237.31;5020000;28;20065;-57
2021/06/16 11:38:43;;;;;;;7.93;3.10;;;;;;;30.25;32.45;96242.19;5021911;28;20065;-57
2021/06/16 11:41:16;;;;;;;;;;;;;;;30.26;32.78;96233.75;5018238;28;20088;-59
2021/06/16 11:43:46;;;;;;;4.57;2.60;;;;;;;30.93;33.08;96242.50;5023917;28;19966;-58
2021/06/16 11:46:16;;;;;;;;;;;;;;;30.96;32.12;96236.50;5018348;28;20085;-61